Time;durP1;ratioP1;P1;durP2;ratioP2;P2;SDS_P1;SDS_P2;PMS_P1;PMS_P2;Temp;Humidity;BMP_temperature;BMP_pressure;BME280_temperature;BME280_humidity;BME280_pressure;Samples;Min_cycle;Max_cycle;Signal;HPM_P1;HPM_P2
2023/02/02 00:02:26;;;;;;;129.10;98.47;;;20.50;83.30;;;;;;1931767;73;21775;-85
2023/02/02 00:04:57;;;;;;;133.67;99.52;;;20.50;83.10;;;;;;1876904;75;21056;-86
2023/02/02 00:07:28;;;;;;;129.12;98.12;;;20.60;82.70;;;;;;1856699;76;21192;-85
2023/02/02 00:09:59;;;;;;;126.05;100.20;;;20.60;82.20;;;;;;1885701;75;21135;-88
2023/02/02 00:12:30;;;;;;;126.80;100.33;;;20.60;81.50;;;;;;1937011;73;21145;-86
2023/02/02 00:15:01;;;;;;;133.72;102.50;;;20.70;81.30;;;;;;1927818;73;21072;-86
2023/02/02 00:17:31;;;;;;;144.53;105.12;;;20.70;80.80;;;;;;1879255;75;21208;-87
2023/02/02 00:20:06;;;;;;;140.90;105.07;;;20.80;81.60;;;;;;1848188;76;21055;-87
2023/02/02 00:22:37;;;;;;;129.20;101.47;;;20.80;80.90;;;;;;1866552;76;21160;-88
2023/02/02 00:25:09;;;;;;;130.03;102.40;;;20.80;80.60;;;;;;1857296;75;21204;-88
2023/02/02 00:27:41;;;;;;;136.32;100.65;;;20.80;79.90;;;;;;1863209;75;21232;-88
2023/02/02 00:30:14;;;;;;;134.47;101.90;;;20.80;79.60;;;;;;1856613;76;21130;-87
2023/02/02 00:32:47;;;;;;;127.40;101.60;;;20.90;79.30;;;;;;1858145;76;21060;-87
2023/02/02 00:35:19;;;;;;;135.22;100.27;;;20.90;78.90;;;;;;1862682;75;21202;-85
2023/02/02 00:37:50;;;;;;;123.72;100.22;;;20.90;78.50;;;;;;1854743;76;21179;-88
2023/02/02 00:40:20;;;;;;;136.77;103.92;;;21.00;77.90;;;;;;1870487;76;21123;-87
2023/02/02 00:42:52;;;;;;;124.65;99.32;;;21.10;77.40;;;;;;1859203;76;21100;-87
2023/02/02 00:45:25;;;;;;;129.95;98.20;;;21.20;77.30;;;;;;1860818;76;21185;-88
2023/02/02 00:48:19;;;;;;;133.27;100.62;;;21.30;76.90;;;;;;1869429;76;21193;-86
2023/02/02 00:50:58;;;;;;;128.23;100.55;;;21.40;76.60;;;;;;1856200;76;21739;-87
2023/02/02 00:53:52;;;;;;;130.05;100.70;;;21.50;76.00;;;;;;1868071;76;21139;-84
2023/02/02 00:56:25;;;;;;;137.75;102.12;;;21.60;75.60;;;;;;1863401;74;21123;-86
2023/02/02 00:59:01;;;;;;;132.43;99.67;;;21.60;75.40;;;;;;1856855;77;21061;-83
2023/02/02 01:01:56;;;;;;;138.37;103.12;;;21.70;75.30;;;;;;1868380;74;21170;-83
2023/02/02 01:04:51;;;;;;;130.43;99.13;;;21.80;75.30;;;;;;1870390;75;21233;-82
2023/02/02 01:07:31;;;;;;;131.57;101.53;;;21.90;75.10;;;;;;1854100;76;21194;-68
2023/02/02 01:10:02;;;;;;;119.80;95.22;;;21.90;74.50;;;;;;1852646;76;21213;-71
2023/02/02 01:12:34;;;;;;;122.95;95.07;;;22.00;73.20;;;;;;1858549;76;21123;-69
2023/02/02 01:15:05;;;;;;;124.07;97.53;;;22.10;73.00;;;;;;1862604;76;21115;-72
2023/02/02 01:17:37;;;;;;;124.45;97.27;;;22.10;73.00;;;;;;1854266;76;21201;-72
2023/02/02 01:20:10;;;;;;;124.42;98.82;;;22.20;73.10;;;;;;1851748;76;21115;-71
2023/02/02 01:22:42;;;;;;;125.10;92.75;;;22.20;73.10;;;;;;1859398;77;21158;-71
2023/02/02 01:25:13;;;;;;;127.25;99.62;;;22.30;73.20;;;;;;1839929;76;21162;-69
2023/02/02 01:27:44;;;;;;;118.70;92.27;;;22.30;73.20;;;;;;1856292;76;21115;-70
2023/02/02 01:30:15;;;;;;;121.62;97.40;;;22.40;73.20;;;;;;1857549;76;21130;-68
2023/02/02 01:32:50;;;;;;;125.95;100.22;;;22.40;73.20;;;;;;1851129;76;21135;-70
2023/02/02 01:35:21;;;;;;;120.47;92.42;;;22.50;73.30;;;;;;1857798;76;21253;-70
2023/02/02 01:37:55;;;;;;;121.10;96.20;;;22.50;73.10;;;;;;1850067;76;21158;-71
2023/02/02 01:40:27;;;;;;;126.35;95.90;;;22.60;73.30;;;;;;1862061;76;21186;-72
2023/02/02 01:42:58;;;;;;;120.75;96.70;;;22.60;73.20;;;;;;1853473;76;21221;-72
2023/02/02 01:45:30;;;;;;;132.78;97.95;;;22.70;73.10;;;;;;1854101;76;21213;-72
2023/02/02 01:48:02;;;;;;;127.90;99.62;;;22.70;73.00;;;;;;1859011;76;21229;-70
2023/02/02 01:50:35;;;;;;;129.10;104.10;;;22.80;72.90;;;;;;1857487;76;21151;-70
2023/02/02 01:53:08;;;;;;;130.60;102.55;;;22.80;72.70;;;;;;1852368;76;21122;-71
2023/02/02 01:55:41;;;;;;;127.75;98.27;;;22.90;72.50;;;;;;1858197;76;21111;-71
2023/02/02 01:58:28;;;;;;;122.15;92.82;;;23.00;71.80;;;;;;1854950;76;21649;-72
2023/02/02 02:00:56;;;;;;;116.70;92.72;;;23.00;70.40;;;;;;1852347;76;21131;-73
2023/02/02 02:03:28;;;;;;;117.03;93.17;;;23.10;70.20;;;;;;1850416;76;21064;-71
2023/02/02 02:06:07;;;;;;;110.75;88.55;;;23.20;70.00;;;;;;1844400;76;21173;-72
2023/02/02 02:08:55;;;;;;;117.93;89.07;;;23.20;70.10;;;;;;1858526;76;21079;-71
2023/02/02 02:11:24;;;;;;;115.12;86.47;;;23.30;70.00;;;;;;1844759;76;21178;-69
2023/02/02 02:17:07;;;;;;;113.83;85.10;;;23.50;68.80;;;;;;1852878;76;21165;-70
2023/02/02 02:29:21;;;;;;;108.92;85.70;;;23.80;67.30;;;;;;1852404;76;21166;-70
2023/02/02 02:32:12;;;;;;;114.88;83.55;;;24.00;67.80;;;;;;1855448;76;21228;-71
2023/02/02 02:35:03;;;;;;;114.05;84.55;;;24.00;67.20;;;;;;1853034;76;21265;-70
2023/02/02 02:37:51;;;;;;;110.55;84.28;;;24.20;66.90;;;;;;1852357;76;21249;-71
2023/02/02 02:40:32;;;;;;;113.47;83.62;;;24.20;66.60;;;;;;1851651;76;21084;-71
2023/02/02 02:43:15;;;;;;;106.52;83.25;;;24.30;66.40;;;;;;1856046;76;21142;-70
2023/02/02 02:45:47;;;;;;;114.17;84.20;;;24.30;66.20;;;;;;1850058;76;21101;-71
2023/02/02 02:48:18;;;;;;;111.90;82.85;;;24.40;65.40;;;;;;1926411;73;21170;-68
2023/02/02 02:50:52;;;;;;;103.72;81.70;;;24.50;65.40;;;;;;1924496;73;21075;-70
2023/02/02 02:53:23;;;;;;;106.60;81.67;;;24.60;65.10;;;;;;1850655;76;21205;-71
2023/02/02 02:56:21;;;;;;;106.95;79.65;;;24.60;64.60;;;;;;1927837;73;21124;-71
2023/02/02 02:59:07;;;;;;;100.60;74.70;;;24.70;64.80;;;;;;1851821;76;21094;-86
2023/02/02 03:01:40;;;;;;;98.60;75.67;;;24.80;64.70;;;;;;1934436;73;21096;-87
2023/02/02 03:04:26;;;;;;;93.22;72.95;;;24.80;63.90;;;;;;1935101;73;21215;-86
2023/02/02 03:07:12;;;;;;;98.50;75.15;;;24.90;64.20;;;;;;1862249;76;21205;-88
2023/02/02 03:09:45;;;;;;;95.53;74.55;;;24.90;64.00;;;;;;1929092;73;21704;-84
2023/02/02 03:12:17;;;;;;;105.78;76.65;;;25.10;63.50;;;;;;1845813;76;21072;-88
2023/02/02 03:14:55;;;;;;;102.90;79.32;;;25.10;64.00;;;;;;1855195;76;21146;-86
2023/02/02 03:17:24;;;;;;;100.70;76.33;;;25.20;64.30;;;;;;1859273;76;21089;-87
2023/02/02 03:20:10;;;;;;;103.27;78.17;;;25.30;64.40;;;;;;1928223;73;21609;-87
2023/02/02 03:22:28;;;;;;;94.92;72.12;;;25.40;64.00;;;;;;1888202;74;21137;-87
2023/02/02 03:25:01;;;;;;;95.03;71.15;;;25.50;63.80;;;;;;1936985;73;21251;-87
2023/02/02 03:27:37;;;;;;;94.97;69.10;;;25.60;63.30;;;;;;1894652;74;22211;-87
2023/02/02 03:30:06;;;;;;;85.17;67.95;;;25.60;61.90;;;;;;1840257;76;21060;-87
2023/02/02 03:32:38;;;;;;;79.27;64.05;;;25.70;62.40;;;;;;1908073;73;21072;-86
2023/02/02 03:35:13;;;;;;;91.02;68.80;;;25.70;61.90;;;;;;1828731;76;21147;-88
2023/02/02 03:37:47;;;;;;;89.07;68.80;;;25.90;60.70;;;;;;1945087;72;21150;-89
2023/02/02 03:40:30;;;;;;;88.85;70.00;;;26.00;61.60;;;;;;1864870;76;21194;-89
2023/02/02 03:42:59;;;;;;;89.50;70.47;;;26.00;60.90;;;;;;1909305;73;21188;-87
2023/02/02 03:45:39;;;;;;;94.28;71.82;;;26.10;61.10;;;;;;1931753;73;21093;-88
2023/02/02 03:48:18;;;;;;;91.35;71.47;;;26.20;61.00;;;;;;1934849;73;21059;-89
2023/02/02 03:50:50;;;;;;;93.75;70.95;;;26.30;61.40;;;;;;1902024;73;21200;-88
2023/02/02 03:53:24;;;;;;;86.22;65.67;;;26.40;61.40;;;;;;1936554;73;21131;-86
2023/02/02 03:55:58;;;;;;;82.23;68.33;;;26.40;60.30;;;;;;1937738;73;21158;-88
2023/02/02 03:58:33;;;;;;;89.37;71.92;;;26.50;61.10;;;;;;1926532;73;21144;-87
2023/02/02 04:01:08;;;;;;;87.33;70.37;;;26.50;60.60;;;;;;1926866;73;21128;-87
2023/02/02 04:03:45;;;;;;;85.72;68.22;;;26.60;61.20;;;;;;1930675;73;21119;-90
2023/02/02 04:06:32;;;;;;;83.52;68.12;;;26.80;60.90;;;;;;1922359;73;21150;-89
2023/02/02 04:09:05;;;;;;;68.10;54.45;;;26.90;60.70;;;;;;1931579;73;21189;-87
2023/02/02 04:12:08;;;;;;;70.37;53.73;;;27.00;58.30;;;;;;1913147;73;21138;-88
2023/02/02 04:14:40;;;;;;;58.55;48.33;;;27.10;58.60;;;;;;1939904;73;21143;-91
2023/02/02 04:17:34;;;;;;;64.75;49.20;;;27.20;57.60;;;;;;1931641;73;21720;-88
2023/02/02 04:20:10;;;;;;;67.45;49.40;;;27.30;56.60;;;;;;1938719;73;21176;-86
2023/02/02 04:22:41;;;;;;;63.87;50.15;;;27.60;58.00;;;;;;1945393;73;21087;-88
2023/02/02 04:27:51;;;;;;;62.40;49.00;;;27.70;56.50;;;;;;1929147;71;21294;-88
2023/02/02 04:30:44;;;;;;;59.38;45.48;;;27.80;56.00;;;;;;1926714;73;21060;-87
2023/02/02 04:33:39;;;;;;;50.03;40.80;;;27.90;55.70;;;;;;1932352;73;21192;-87
2023/02/02 04:36:17;;;;;;;53.15;43.25;;;28.00;54.50;;;;;;1895395;70;21126;-87
2023/02/02 04:38:59;;;;;;;59.30;43.65;;;28.10;54.30;;;;;;1875560;75;21144;-90
2023/02/02 04:41:33;;;;;;;49.13;40.35;;;28.30;54.50;;;;;;1878689;75;21114;-88
2023/02/02 04:44:15;;;;;;;47.88;39.95;;;28.30;54.50;;;;;;1872203;75;21110;-88
2023/02/02 04:46:45;;;;;;;50.65;40.95;;;28.40;52.80;;;;;;1879274;75;21160;-88
2023/02/02 04:49:36;;;;;;;54.50;42.70;;;28.50;52.80;;;;;;1831982;77;21210;-91
2023/02/02 04:52:19;;;;;;;59.73;45.85;;;28.60;53.70;;;;;;1776415;80;21199;-89
2023/02/02 04:55:07;;;;;;;57.35;45.15;;;28.70;53.90;;;;;;1859684;77;21158;-89
2023/02/02 05:00:34;;;;;;;55.05;43.42;;;29.10;53.20;;;;;;1959710;71;21108;-90
2023/02/02 05:03:28;;;;;;;50.83;39.38;;;;;;;;;;1953566;71;21048;-91
2023/02/02 05:06:22;;;;;;;64.53;40.15;;;29.30;51.40;;;;;;1953585;72;21182;-91
2023/02/02 05:09:20;;;;;;;52.05;38.95;;;29.30;52.20;;;;;;1955155;72;21255;-91
2023/02/02 05:12:14;;;;;;;43.10;35.78;;;29.50;52.70;;;;;;1911454;74;21230;-75
2023/02/02 05:14:47;;;;;;;45.67;36.70;;;29.60;51.10;;;;;;1907899;74;21241;-72
2023/02/02 05:17:24;;;;;;;46.30;36.95;;;29.60;52.20;;;;;;1876377;76;21173;-74
2023/02/02 05:19:55;;;;;;;51.75;41.33;;;29.60;52.00;;;;;;1900339;74;21595;-72
2023/02/02 05:22:26;;;;;;;47.25;36.73;;;29.70;52.50;;;;;;1894885;74;21091;-70
2023/02/02 05:25:02;;;;;;;53.10;38.50;;;29.70;52.00;;;;;;1893254;74;21174;-72
2023/02/02 05:27:29;;;;;;;48.40;37.53;;;29.80;51.50;;;;;;1868599;76;21208;-72
2023/02/02 05:30:00;;;;;;;46.40;37.73;;;29.90;51.90;;;;;;1911158;74;21236;-69
2023/02/02 05:32:31;;;;;;;48.10;35.38;;;30.00;52.10;;;;;;1913533;74;21122;-70
2023/02/02 05:35:02;;;;;;;48.40;34.20;;;30.00;51.60;;;;;;1874571;76;21703;-71
2023/02/02 05:37:33;;;;;;;45.15;35.83;;;30.00;51.00;;;;;;1870827;76;21859;-71
2023/02/02 05:40:11;;;;;;;45.12;37.60;;;30.10;51.40;;;;;;1879615;76;21472;-70
2023/02/02 05:42:39;;;;;;;45.35;34.80;;;30.20;52.10;;;;;;1862448;75;21560;-71
2023/02/02 05:45:21;;;;;;;45.55;34.58;;;;;;;;;;1880049;74;21132;-71
2023/02/02 05:47:56;;;;;;;45.35;35.05;;;30.30;50.70;;;;;;1869039;74;21087;-71
2023/02/02 05:50:27;;;;;;;44.40;34.45;;;30.40;51.70;;;;;;1902222;73;21293;-70
2023/02/02 05:52:59;;;;;;;44.00;34.35;;;30.50;52.50;;;;;;1880738;74;21154;-71
2023/02/02 05:55:31;;;;;;;45.90;34.38;;;30.60;51.60;;;;;;1870583;74;21138;-73
2023/02/02 05:58:02;;;;;;;45.40;34.45;;;30.60;51.10;;;;;;1887307;76;21211;-71
2023/02/02 06:00:36;;;;;;;42.73;34.78;;;30.70;51.10;;;;;;1899846;73;21178;-73
2023/02/02 06:03:11;;;;;;;45.65;32.63;;;30.70;51.90;;;;;;1907589;73;21619;-70
2023/02/02 06:05:45;;;;;;;;;;;30.70;51.70;;;;;;1878891;75;21170;-72
2023/02/02 06:08:15;;;;;;;50.03;35.40;;;30.70;52.00;;;;;;1857924;75;20482;-71
2023/02/02 06:10:49;;;;;;;52.08;36.33;;;30.70;51.70;;;;;;1868624;75;21616;-71
2023/02/02 06:13:20;;;;;;;47.00;31.90;;;30.80;52.80;;;;;;1952793;72;21592;-73
2023/02/02 06:15:52;;;;;;;43.17;33.60;;;30.80;50.80;;;;;;1938798;73;21065;-71
2023/02/02 06:18:24;;;;;;;41.28;34.05;;;30.90;51.60;;;;;;1945528;73;21584;-71
2023/02/02 06:21:00;;;;;;;43.38;32.98;;;30.90;51.30;;;;;;1947153;73;21202;-70
2023/02/02 06:23:32;;;;;;;44.20;34.13;;;30.90;51.70;;;;;;1952513;72;21112;-69
2023/02/02 06:26:04;;;;;;;40.75;34.35;;;31.00;51.80;;;;;;1944293;73;21131;-70
2023/02/02 06:28:34;;;;;;;47.10;35.45;;;31.00;51.60;;;;;;1934233;72;21634;-72
2023/02/02 06:31:07;;;;;;;42.55;32.93;;;31.00;51.70;;;;;;1937290;73;21152;-71
2023/02/02 06:33:38;;;;;;;44.55;34.53;;;31.00;51.30;;;;;;1945392;72;21197;-70
2023/02/02 06:36:14;;;;;;;46.92;34.10;;;31.00;52.40;;;;;;1944558;72;21207;-71
2023/02/02 06:38:46;;;;;;;48.58;36.10;;;31.00;52.10;;;;;;1944915;73;21096;-70
2023/02/02 06:41:22;;;;;;;44.08;32.93;;;31.10;52.70;;;;;;1937055;72;21127;-70
2023/02/02 06:43:55;;;;;;;42.03;33.53;;;31.10;51.90;;;;;;1937309;73;21093;-69
2023/02/02 06:46:28;;;;;;;47.23;32.70;;;31.10;51.50;;;;;;1943451;72;21392;-70
2023/02/02 06:48:59;;;;;;;48.48;31.65;;;31.20;50.80;;;;;;1925747;72;21195;-71
2023/02/02 06:51:30;;;;;;;40.58;32.03;;;31.30;51.40;;;;;;1956590;72;21252;-69
2023/02/02 06:54:02;;;;;;;35.58;29.80;;;31.30;50.30;;;;;;1952207;73;21073;-69
2023/02/02 06:56:36;;;;;;;38.83;32.40;;;31.40;50.40;;;;;;1942408;73;21144;-70
2023/02/02 06:59:08;;;;;;;39.10;30.97;;;31.40;50.90;;;;;;1953566;73;21109;-70
2023/02/02 07:01:40;;;;;;;44.50;33.00;;;31.40;51.10;;;;;;1929110;73;21669;-72
2023/02/02 07:04:11;;;;;;;40.33;31.82;;;31.30;51.20;;;;;;1915710;74;21610;-70
2023/02/02 07:06:44;;;;;;;39.95;34.73;;;31.30;52.30;;;;;;1929798;73;21185;-72
2023/02/02 07:09:14;;;;;;;39.83;31.17;;;31.20;51.20;;;;;;1917624;74;21099;-70
2023/02/02 07:11:45;;;;;;;46.53;37.58;;;31.20;51.80;;;;;;1920670;73;21221;-70
2023/02/02 07:14:17;;;;;;;47.17;31.85;;;31.20;52.00;;;;;;1919943;74;21166;-70
2023/02/02 07:16:48;;;;;;;42.65;32.78;;;31.20;52.10;;;;;;1929458;73;21083;-70
2023/02/02 07:19:19;;;;;;;40.30;31.93;;;31.20;52.30;;;;;;1870751;75;21133;-70
2023/02/02 07:21:50;;;;;;;38.90;31.07;;;31.30;52.70;;;;;;1918895;73;21688;-72
2023/02/02 07:24:22;;;;;;;36.85;30.40;;;31.30;52.20;;;;;;1918167;74;21200;-70
2023/02/02 07:26:54;;;;;;;38.70;30.82;;;31.30;52.10;;;;;;1924895;73;21117;-70
2023/02/02 07:29:25;;;;;;;39.83;30.85;;;31.30;52.20;;;;;;1924301;74;21114;-72
2023/02/02 07:31:56;;;;;;;38.05;29.65;;;31.30;52.30;;;;;;1868236;75;21169;-71
2023/02/02 07:34:29;;;;;;;34.98;29.40;;;31.30;52.30;;;;;;1914684;74;21165;-72
2023/02/02 07:37:00;;;;;;;40.08;28.83;;;31.30;52.60;;;;;;1923429;74;21083;-70
2023/02/02 07:39:31;;;;;;;39.40;29.70;;;31.30;52.80;;;;;;1914007;74;21085;-70
2023/02/02 07:42:04;;;;;;;34.98;30.05;;;31.10;52.70;;;;;;1922279;73;21197;-71
2023/02/02 07:44:36;;;;;;;35.52;28.60;;;31.00;52.90;;;;;;1909527;74;21146;-70
2023/02/02 07:47:08;;;;;;;37.70;29.40;;;31.00;52.50;;;;;;1923944;73;21142;-70
2023/02/02 07:49:39;;;;;;;32.45;27.30;;;31.00;52.70;;;;;;1917543;74;21059;-71
2023/02/02 07:52:12;;;;;;;37.95;29.80;;;30.90;52.40;;;;;;1917132;73;21242;-71
2023/02/02 07:54:46;;;;;;;33.58;27.02;;;30.90;52.00;;;;;;1918869;74;21060;-71
2023/02/02 07:57:23;;;;;;;35.58;28.32;;;30.90;52.40;;;;;;1920877;73;21063;-70
2023/02/02 07:59:51;;;;;;;34.25;27.10;;;30.90;51.90;;;;;;1842995;76;21776;-70
2023/02/02 08:02:25;;;;;;;37.95;28.35;;;30.90;51.60;;;;;;1943221;73;21140;-71
2023/02/02 08:04:57;;;;;;;36.95;28.98;;;30.90;51.90;;;;;;1946370;73;21158;-69
2023/02/02 08:07:27;;;;;;;40.20;27.77;;;30.90;51.60;;;;;;1940002;72;21120;-70
2023/02/02 08:09:59;;;;;;;36.10;28.42;;;30.90;52.20;;;;;;1943674;72;21139;-70
2023/02/02 08:12:33;;;;;;;37.65;28.38;;;30.80;52.90;;;;;;1947810;73;21837;-69
2023/02/02 08:15:06;;;;;;;39.90;29.60;;;30.70;52.40;;;;;;1940079;73;21203;-69
2023/02/02 08:17:37;;;;;;;32.30;28.85;;;30.70;52.60;;;;;;1949656;72;21191;-71
2023/02/02 08:20:11;;;;;;;34.33;28.07;;;30.70;52.90;;;;;;1948355;73;21566;-70
2023/02/02 08:22:42;;;;;;;38.08;28.20;;;30.70;52.90;;;;;;1943820;73;21143;-68
2023/02/02 08:25:13;;;;;;;34.40;27.00;;;30.70;53.00;;;;;;1899667;75;21191;-70
2023/02/02 08:27:44;;;;;;;38.58;29.18;;;30.60;53.00;;;;;;1885970;75;21128;-69
2023/02/02 08:30:19;;;;;;;37.98;30.20;;;30.70;52.50;;;;;;1844376;76;21108;-70
2023/02/02 08:32:50;;;;;;;36.15;28.92;;;30.70;52.80;;;;;;1880427;75;21174;-69
2023/02/02 08:35:21;;;;;;;35.63;26.68;;;30.70;52.70;;;;;;1939355;73;21118;-69
2023/02/02 08:37:56;;;;;;;37.78;27.37;;;30.70;53.00;;;;;;1950121;72;21676;-69
2023/02/02 08:40:27;;;;;;;35.45;27.15;;;30.70;53.00;;;;;;1938924;73;21152;-70
2023/02/02 08:42:58;;;;;;;35.95;27.17;;;30.70;52.80;;;;;;1942432;73;21089;-70
2023/02/02 08:45:30;;;;;;;33.75;24.87;;;30.60;52.80;;;;;;1951142;73;21185;-70
2023/02/02 08:48:03;;;;;;;34.03;24.67;;;30.60;52.80;;;;;;1842675;75;21116;-69
2023/02/02 08:50:36;;;;;;;29.90;23.75;;;30.60;53.00;;;;;;1880393;75;21199;-70
2023/02/02 08:53:09;;;;;;;31.97;22.32;;;30.70;52.60;;;;;;1943055;73;21577;-70
2023/02/02 08:55:40;;;;;;;33.70;24.12;;;30.60;51.70;;;;;;1920568;73;21720;-70
2023/02/02 08:58:16;;;;;;;33.33;25.32;;;30.60;51.90;;;;;;1933165;72;21080;-70
2023/02/02 09:00:43;;;;;;;32.35;24.90;;;30.60;51.90;;;;;;1938850;72;21145;-70
2023/02/02 09:03:16;;;;;;;29.42;24.37;;;30.60;52.20;;;;;;1955171;72;21659;-70
2023/02/02 09:05:47;;;;;;;29.15;23.50;;;30.60;51.80;;;;;;1952065;72;21149;-71
2023/02/02 09:08:18;;;;;;;31.00;23.65;;;30.50;52.10;;;;;;1879747;74;21166;-70
2023/02/02 09:10:49;;;;;;;34.03;23.65;;;30.50;52.20;;;;;;1900243;74;21191;-71
2023/02/02 09:13:20;;;;;;;29.52;23.10;;;30.50;52.90;;;;;;1909284;74;21135;-71
2023/02/02 09:15:52;;;;;;;34.88;25.30;;;30.50;53.10;;;;;;1898160;74;21244;-70
2023/02/02 09:18:23;;;;;;;31.52;23.73;;;30.50;54.10;;;;;;1887139;74;21100;-70
2023/02/02 09:20:54;;;;;;;29.70;22.58;;;30.50;53.00;;;;;;1862028;76;21227;-70
2023/02/02 09:23:25;;;;;;;33.02;23.57;;;30.50;53.50;;;;;;1879647;76;21155;-70
2023/02/02 09:25:56;;;;;;;35.88;23.45;;;30.40;53.30;;;;;;1903773;74;21135;-71
2023/02/02 09:28:28;;;;;;;30.75;22.67;;;30.40;53.30;;;;;;1896430;74;21135;-70
2023/02/02 09:31:01;;;;;;;30.25;22.93;;;30.50;53.80;;;;;;1905638;74;21152;-71
2023/02/02 09:33:33;;;;;;;26.37;21.60;;;30.40;53.90;;;;;;1899719;74;21078;-70
2023/02/02 09:36:09;;;;;;;36.35;22.60;;;30.40;53.80;;;;;;1905916;74;21576;-70
2023/02/02 09:38:40;;;;;;;27.75;21.45;;;30.30;54.10;;;;;;1864464;75;21637;-71
2023/02/02 09:41:41;;;;;;;26.05;21.55;;;30.30;54.30;;;;;;1861967;76;21087;-70
2023/02/02 09:44:32;;;;;;;26.87;21.68;;;30.30;54.60;;;;;;1885792;75;21618;-70
2023/02/02 09:47:23;;;;;;;31.17;22.95;;;30.30;54.60;;;;;;1883953;75;21677;-70
2023/02/02 09:50:17;;;;;;;29.12;22.45;;;30.20;54.60;;;;;;1888062;75;21104;-70
2023/02/02 09:53:05;;;;;;;34.95;23.38;;;30.20;54.90;;;;;;1880614;75;21178;-71
2023/02/02 09:55:42;;;;;;;27.35;20.97;;;30.20;54.90;;;;;;1831645;76;21502;-70
2023/02/02 09:58:21;;;;;;;31.82;21.70;;;30.20;54.80;;;;;;1936072;72;21221;-71
2023/02/02 10:00:57;;;;;;;29.55;20.23;;;30.20;54.80;;;;;;1959855;72;21178;-71
2023/02/02 10:03:37;;;;;;;28.32;20.12;;;30.20;54.80;;;;;;1953252;72;21210;-71
2023/02/02 10:06:33;;;;;;;30.52;21.70;;;30.10;55.00;;;;;;1948576;73;21127;-69
2023/02/02 10:09:25;;;;;;;31.52;20.77;;;30.00;55.10;;;;;;1951522;73;21198;-70
2023/02/02 10:12:02;;;;;;;28.73;20.97;;;30.00;55.10;;;;;;1952912;73;21139;-71
2023/02/02 10:14:54;;;;;;;28.55;20.02;;;29.90;55.30;;;;;;1950775;73;21096;-72
2023/02/02 10:17:39;;;;;;;29.95;21.68;;;29.80;55.40;;;;;;1946074;73;21253;-70
2023/02/02 10:20:30;;;;;;;28.62;20.82;;;29.80;55.70;;;;;;1948711;73;21148;-70
2023/02/02 10:23:06;;;;;;;26.80;20.95;;;29.70;55.90;;;;;;1955524;73;21120;-70
2023/02/02 10:25:38;;;;;;;33.30;24.35;;;29.70;56.30;;;;;;1948927;73;21623;-71
2023/02/02 10:28:12;;;;;;;28.02;20.20;;;29.70;56.30;;;;;;1954209;73;21097;-71
2023/02/02 10:30:45;;;;;;;28.67;20.10;;;29.60;56.10;;;;;;1953491;72;21233;-72
2023/02/02 10:33:18;;;;;;;32.45;20.45;;;29.60;56.00;;;;;;1946259;72;21168;-68
2023/02/02 10:35:58;;;;;;;27.70;21.20;;;29.60;56.10;;;;;;1937972;72;21088;-72
2023/02/02 10:38:36;;;;;;;33.63;21.17;;;29.60;56.20;;;;;;1952808;73;21068;-70
2023/02/02 10:41:24;;;;;;;28.47;20.75;;;29.50;56.20;;;;;;1950528;73;21154;-70
2023/02/02 10:44:19;;;;;;;26.48;19.67;;;29.50;56.30;;;;;;1946057;72;21754;-71
2023/02/02 10:46:58;;;;;;;24.52;18.75;;;29.40;56.20;;;;;;1944332;73;21112;-70
2023/02/02 10:49:36;;;;;;;28.92;19.90;;;29.30;56.10;;;;;;1943940;73;21583;-71
2023/02/02 10:52:18;;;;;;;25.32;18.35;;;29.30;56.20;;;;;;1949399;73;21112;-71
2023/02/02 10:55:08;;;;;;;28.00;18.82;;;29.20;56.00;;;;;;1946925;73;21124;-71
2023/02/02 10:57:50;;;;;;;24.60;18.12;;;29.20;56.00;;;;;;1945085;72;21108;-70
2023/02/02 11:00:33;;;;;;;25.55;18.70;;;29.10;56.10;;;;;;1944967;73;21580;-69
2023/02/02 11:03:05;;;;;;;30.35;17.42;;;29.10;56.20;;;;;;1950362;72;21701;-69
2023/02/02 11:08:33;;;;;;;28.87;19.05;;;29.10;56.30;;;;;;1938416;73;21108;-70
2023/02/02 11:11:30;;;;;;;28.70;19.90;;;29.10;56.50;;;;;;1940441;73;21154;-92
2023/02/02 11:14:09;;;;;;;31.45;20.40;;;29.10;56.60;;;;;;1945169;73;21593;-90
2023/02/02 11:16:44;;;;;;;35.00;23.73;;;29.00;56.50;;;;;;1884781;73;21178;-91
2023/02/02 11:19:28;;;;;;;29.63;22.05;;;29.00;56.50;;;;;;1938672;73;21144;-90
2023/02/02 11:21:58;;;;;;;35.25;23.27;;;29.00;56.50;;;;;;1950189;73;21166;-88
2023/02/02 11:24:49;;;;;;;30.50;21.52;;;28.90;56.50;;;;;;1947268;73;21069;-89
2023/02/02 11:27:25;;;;;;;26.82;20.45;;;28.90;56.50;;;;;;1943769;73;21249;-89
2023/02/02 11:30:00;;;;;;;32.08;19.80;;;28.90;56.50;;;;;;1939253;73;21149;-88
2023/02/02 11:32:34;;;;;;;31.57;21.30;;;28.90;56.40;;;;;;1953803;73;21576;-91
2023/02/02 11:35:24;;;;;;;35.43;20.85;;;28.80;56.70;;;;;;1947588;73;21170;-90
2023/02/02 11:38:01;;;;;;;31.17;19.50;;;28.80;56.70;;;;;;1939625;73;21116;-91
2023/02/02 11:41:09;;;;;;;27.65;19.95;;;28.70;56.70;;;;;;1950289;73;21073;-90
2023/02/02 11:43:55;;;;;;;28.23;18.90;;;28.70;56.70;;;;;;1947506;73;21592;-89
2023/02/02 11:46:47;;;;;;;32.20;20.35;;;28.70;56.70;;;;;;1939931;73;21124;-89
2023/02/02 11:52:07;;;;;;;33.88;20.65;;;28.60;56.70;;;;;;1894599;71;21041;-87
2023/02/02 11:54:45;;;;;;;33.13;22.48;;;28.60;56.80;;;;;;1852052;75;21080;-92
2023/02/02 11:57:22;;;;;;;27.27;21.10;;;28.60;57.10;;;;;;1816412;76;21170;-90
2023/02/02 12:00:08;;;;;;;33.75;21.35;;;28.50;57.20;;;;;;1853199;76;21124;-91
2023/02/02 12:02:46;;;;;;;30.50;22.45;;;28.50;57.20;;;;;;1835210;76;21096;-92
2023/02/02 12:05:24;;;;;;;33.28;23.47;;;28.50;57.20;;;;;;1821102;77;21128;-91
2023/02/02 12:07:57;;;;;;;30.70;22.15;;;28.40;57.30;;;;;;1799203;77;21105;-89
2023/02/02 12:10:43;;;;;;;29.40;21.02;;;28.40;57.30;;;;;;1859342;75;21183;-90
2023/02/02 12:13:41;;;;;;;37.23;23.20;;;28.40;57.40;;;;;;1874814;75;21807;-89
2023/02/02 12:16:44;;;;;;;32.23;23.18;;;28.40;57.40;;;;;;1857884;71;21155;-90
2023/02/02 12:19:34;;;;;;;35.50;22.77;;;28.40;57.60;;;;;;1816060;78;21114;-90
2023/02/02 12:22:33;;;;;;;32.85;23.12;;;28.40;57.60;;;;;;1848118;73;21124;-91
2023/02/02 12:25:25;;;;;;;38.60;23.52;;;28.40;57.80;;;;;;1848940;76;21155;-92
2023/02/02 12:28:08;;;;;;;30.88;23.62;;;28.30;57.80;;;;;;1844035;76;21155;-92
2023/02/02 12:30:51;;;;;;;35.65;23.65;;;28.30;58.00;;;;;;1861503;76;21238;-91
2023/02/02 12:33:38;;;;;;;34.55;23.22;;;28.30;58.10;;;;;;1816380;77;21072;-90
2023/02/02 12:36:11;;;;;;;35.97;25.10;;;28.30;58.30;;;;;;1853861;76;21084;-92
2023/02/02 12:38:48;;;;;;;36.30;24.25;;;28.30;58.40;;;;;;1806460;74;21169;-91
2023/02/02 12:41:40;;;;;;;41.20;25.40;;;28.20;58.50;;;;;;1834808;76;21158;-92
2023/02/02 12:44:44;;;;;;;38.55;24.63;;;28.20;58.70;;;;;;1847848;76;21732;-87
2023/02/02 12:47:47;;;;;;;34.23;23.85;;;28.20;58.90;;;;;;1842518;76;21120;-90
2023/02/02 12:50:49;;;;;;;35.43;24.50;;;28.20;59.10;;;;;;1831375;77;21827;-91
2023/02/02 12:53:44;;;;;;;37.98;23.15;;;28.10;59.30;;;;;;1848659;76;21155;-92
2023/02/02 12:56:47;;;;;;;35.88;22.05;;;28.10;59.40;;;;;;1839879;76;21287;-91
2023/02/02 12:59:37;;;;;;;36.63;23.12;;;28.10;59.30;;;;;;1869857;75;21234;-91
2023/02/02 13:02:33;;;;;;;34.58;22.00;;;28.00;59.40;;;;;;1867950;75;21156;-90
2023/02/02 13:05:06;;;;;;;39.80;27.52;;;28.00;59.60;;;;;;1829106;77;21193;-91
2023/02/02 13:07:46;;;;;;;46.85;28.35;;;28.00;59.80;;;;;;1851084;76;21097;-89
2023/02/02 13:10:32;;;;;;;34.92;24.20;;;28.00;60.10;;;;;;1841161;76;21181;-91
2023/02/02 13:13:07;;;;;;;37.50;23.70;;;28.00;60.40;;;;;;1836859;76;21263;-90
2023/02/02 13:15:47;;;;;;;39.18;24.47;;;27.90;60.50;;;;;;1834725;77;21193;-89
2023/02/02 13:18:25;;;;;;;37.83;24.35;;;27.90;60.80;;;;;;1835147;76;21214;-89
2023/02/02 13:20:58;;;;;;;34.48;24.10;;;27.80;60.80;;;;;;1828715;77;21694;-86
2023/02/02 13:23:44;;;;;;;38.42;24.05;;;27.80;61.10;;;;;;1851244;76;21139;-87
2023/02/02 13:26:38;;;;;;;35.65;23.55;;;27.80;61.20;;;;;;1873453;74;21187;-88
2023/02/02 13:29:11;;;;;;;38.73;24.07;;;27.80;61.40;;;;;;1863101;75;21199;-88
2023/02/02 13:32:01;;;;;;;35.50;22.73;;;27.70;61.60;;;;;;1838574;76;21160;-88
2023/02/02 13:34:49;;;;;;;40.85;24.47;;;27.70;61.70;;;;;;1854783;75;21800;-87
2023/02/02 13:37:36;;;;;;;38.08;26.00;;;27.70;62.00;;;;;;1843765;76;21101;-89
2023/02/02 13:40:27;;;;;;;42.03;24.92;;;27.70;62.10;;;;;;1832338;77;21189;-89
2023/02/02 13:43:01;;;;;;;34.92;24.63;;;27.60;61.00;;;;;;1851354;76;21174;-89